sensor_id;sensor_type;location;lat;lon;timestamp;pressure;altitude;pressure_sealevel;temperature;humidity
71567;BME280;59403;47.456;19.120;2023-06-26T00:02:15;100158.25;;;18.94;100.00
71567;BME280;59403;47.456;19.120;2023-06-26T00:04:43;100149.03;;;18.90;100.00
71567;BME280;59403;47.456;19.120;2023-06-26T00:07:10;100148.84;;;18.85;100.00
71567;BME280;59403;47.456;19.120;2023-06-26T00:09:38;100152.16;;;18.80;100.00
71567;BME280;59403;47.456;19.120;2023-06-26T00:12:06;100150.53;;;18.79;100.00
71567;BME280;59403;47.456;19.120;2023-06-26T00:14:33;100151.78;;;18.77;100.00
71567;BME280;59403;47.456;19.120;2023-06-26T00:16:59;100155.50;;;18.76;100.00
71567;BME280;59403;47.456;19.120;2023-06-26T00:19:26;100161.25;;;18.79;100.00
71567;BME280;59403;47.456;19.120;2023-06-26T00:21:53;100162.91;;;18.80;100.00
71567;BME280;59403;47.456;19.120;2023-06-26T00:24:20;100163.13;;;18.79;100.00
71567;BME280;59403;47.456;19.120;2023-06-26T00:26:48;100159.59;;;18.78;100.00
71567;BME280;59403;47.456;19.120;2023-06-26T00:29:16;100161.50;;;18.71;100.00
71567;BME280;59403;47.456;19.120;2023-06-26T00:31:43;100158.47;;;18.61;100.00
71567;BME280;59403;47.456;19.120;2023-06-26T00:34:09;100156.44;;;18.57;100.00
71567;BME280;59403;47.456;19.120;2023-06-26T00:36:36;100160.13;;;18.56;100.00
71567;BME280;59403;47.456;19.120;2023-06-26T00:39:03;100152.72;;;18.58;100.00
71567;BME280;59403;47.456;19.120;2023-06-26T00:41:31;100158.09;;;18.51;100.00
71567;BME280;59403;47.456;19.120;2023-06-26T00:43:59;100159.75;;;18.52;100.00
71567;BME280;59403;47.456;19.120;2023-06-26T00:46:26;100164.53;;;18.50;100.00
71567;BME280;59403;47.456;19.120;2023-06-26T00:48:54;100161.22;;;18.48;100.00
71567;BME280;59403;47.456;19.120;2023-06-26T00:51:21;100161.44;;;18.47;100.00
71567;BME280;59403;47.456;19.120;2023-06-26T00:53:48;100156.25;;;18.45;100.00
71567;BME280;59403;47.456;19.120;2023-06-26T00:56:17;100155.91;;;18.42;100.00
71567;BME280;59403;47.456;19.120;2023-06-26T00:58:44;100142.50;;;18.42;100.00
71567;BME280;59403;47.456;19.120;2023-06-26T01:04:27;100145.75;;;18.37;100.00
71567;BME280;59403;47.456;19.120;2023-06-26T01:06:58;100149.88;;;18.40;100.00
71567;BME280;59403;47.456;19.120;2023-06-26T01:09:26;100149.28;;;18.38;100.00
71567;BME280;59403;47.456;19.120;2023-06-26T01:11:53;100142.25;;;18.37;100.00
71567;BME280;59403;47.456;19.120;2023-06-26T01:14:20;100145.53;;;18.39;100.00
71567;BME280;59403;47.456;19.120;2023-06-26T01:16:48;100142.88;;;18.39;100.00
71567;BME280;59403;47.456;19.120;2023-06-26T01:19:19;100141.00;;;18.39;100.00
71567;BME280;59403;47.456;19.120;2023-06-26T01:21:56;100135.66;;;18.39;100.00
71567;BME280;59403;47.456;19.120;2023-06-26T01:24:26;100137.94;;;18.36;100.00
71567;BME280;59403;47.456;19.120;2023-06-26T01:26:59;100133.22;;;18.31;100.00
71567;BME280;59403;47.456;19.120;2023-06-26T01:29:28;100141.06;;;18.33;100.00
71567;BME280;59403;47.456;19.120;2023-06-26T01:31:58;100138.59;;;18.31;100.00
71567;BME280;59403;47.456;19.120;2023-06-26T01:34:26;100137.97;;;18.29;100.00
71567;BME280;59403;47.456;19.120;2023-06-26T01:36:53;100138.19;;;18.28;100.00
71567;BME280;59403;47.456;19.120;2023-06-26T01:39:20;100136.31;;;18.28;100.00
71567;BME280;59403;47.456;19.120;2023-06-26T01:41:47;100133.22;;;18.25;100.00
71567;BME280;59403;47.456;19.120;2023-06-26T01:44:25;100125.19;;;18.25;100.00
71567;BME280;59403;47.456;19.120;2023-06-26T01:47:00;100131.19;;;18.20;100.00
71567;BME280;59403;47.456;19.120;2023-06-26T01:49:40;100123.38;;;18.19;100.00
71567;BME280;59403;47.456;19.120;2023-06-26T01:52:13;100126.88;;;18.19;100.00
71567;BME280;59403;47.456;19.120;2023-06-26T01:54:49;100126.06;;;18.19;100.00
71567;BME280;59403;47.456;19.120;2023-06-26T01:57:18;100122.34;;;18.13;100.00
71567;BME280;59403;47.456;19.120;2023-06-26T01:59:50;100133.66;;;18.22;100.00
71567;BME280;59403;47.456;19.120;2023-06-26T02:02:18;100138.41;;;18.20;100.00
71567;BME280;59403;47.456;19.120;2023-06-26T02:04:44;100135.13;;;18.17;100.00
71567;BME280;59403;47.456;19.120;2023-06-26T02:07:14;100137.41;;;18.21;100.00
71567;BME280;59403;47.456;19.120;2023-06-26T02:09:40;100136.78;;;18.19;100.00
71567;BME280;59403;47.456;19.120;2023-06-26T02:12:08;100143.16;;;18.17;100.00
71567;BME280;59403;47.456;19.120;2023-06-26T02:14:34;100135.50;;;18.21;100.00
71567;BME280;59403;47.456;19.120;2023-06-26T02:17:03;100137.59;;;18.19;100.00
71567;BME280;59403;47.456;19.120;2023-06-26T02:19:30;100135.97;;;18.11;100.00
71567;BME280;59403;47.456;19.120;2023-06-26T02:21:57;100137.62;;;18.06;100.00
71567;BME280;59403;47.456;19.120;2023-06-26T02:24:24;100135.37;;;18.03;100.00
71567;BME280;59403;47.456;19.120;2023-06-26T02:26:52;100138.09;;;17.96;100.00
71567;BME280;59403;47.456;19.120;2023-06-26T02:29:19;100135.59;;;17.95;100.00
71567;BME280;59403;47.456;19.120;2023-06-26T02:31:46;100147.78;;;17.91;100.00
71567;BME280;59403;47.456;19.120;2023-06-26T02:34:14;100150.06;;;17.94;100.00
71567;BME280;59403;47.456;19.120;2023-06-26T02:36:41;100142.22;;;17.92;100.00
71567;BME280;59403;47.456;19.120;2023-06-26T02:39:08;100141.78;;;17.95;100.00
71567;BME280;59403;47.456;19.120;2023-06-26T02:41:35;100145.72;;;17.93;100.00
71567;BME280;59403;47.456;19.120;2023-06-26T02:44:02;100141.19;;;17.93;100.00
71567;BME280;59403;47.456;19.120;2023-06-26T02:46:29;100145.53;;;17.94;100.00
71567;BME280;59403;47.456;19.120;2023-06-26T02:48:56;100149.00;;;17.95;100.00
71567;BME280;59403;47.456;19.120;2023-06-26T02:51:25;100139.94;;;17.96;100.00
71567;BME280;59403;47.456;19.120;2023-06-26T02:53:51;100144.69;;;17.94;100.00
71567;BME280;59403;47.456;19.120;2023-06-26T02:56:18;100156.25;;;17.94;100.00
71567;BME280;59403;47.456;19.120;2023-06-26T02:58:45;100155.19;;;17.95;100.00
71567;BME280;59403;47.456;19.120;2023-06-26T03:01:12;100160.34;;;17.97;100.00
71567;BME280;59403;47.456;19.120;2023-06-26T03:03:41;100157.44;;;17.98;100.00
71567;BME280;59403;47.456;19.120;2023-06-26T03:06:08;100157.62;;;18.10;100.00
71567;BME280;59403;47.456;19.120;2023-06-26T03:08:37;100157.84;;;18.08;100.00
71567;BME280;59403;47.456;19.120;2023-06-26T03:11:04;100154.78;;;18.05;100.00
71567;BME280;59403;47.456;19.120;2023-06-26T03:13:32;100158.25;;;18.05;100.00
71567;BME280;59403;47.456;19.120;2023-06-26T03:15:59;100156.63;;;18.04;100.00
71567;BME280;59403;47.456;19.120;2023-06-26T03:18:26;100160.94;;;18.05;100.00
71567;BME280;59403;47.456;19.120;2023-06-26T03:20:53;100157.44;;;18.05;100.00
71567;BME280;59403;47.456;19.120;2023-06-26T03:23:20;100162.81;;;18.05;100.00
71567;BME280;59403;47.456;19.120;2023-06-26T03:25:49;100166.50;;;18.04;100.00
71567;BME280;59403;47.456;19.120;2023-06-26T03:28:16;100165.66;;;18.03;100.00
71567;BME280;59403;47.456;19.120;2023-06-26T03:30:43;100163.41;;;18.00;100.00
71567;BME280;59403;47.456;19.120;2023-06-26T03:33:10;100165.87;;;18.02;100.00
71567;BME280;59403;47.456;19.120;2023-06-26T03:35:37;100161.16;;;18.04;100.00
71567;BME280;59403;47.456;19.120;2023-06-26T03:38:05;100169.19;;;18.04;100.00
71567;BME280;59403;47.456;19.120;2023-06-26T03:40:32;100166.50;;;18.04;100.00
71567;BME280;59403;47.456;19.120;2023-06-26T03:43:00;100164.03;;;18.02;100.00
71567;BME280;59403;47.456;19.120;2023-06-26T03:45:27;100162.59;;;18.06;100.00
71567;BME280;59403;47.456;19.120;2023-06-26T03:47:53;100169.16;;;18.10;100.00
71567;BME280;59403;47.456;19.120;2023-06-26T03:50:20;100157.81;;;18.15;100.00
71567;BME280;59403;47.456;19.120;2023-06-26T03:52:47;100173.47;;;18.18;100.00
71567;BME280;59403;47.456;19.120;2023-06-26T03:55:16;100164.00;;;18.22;100.00
71567;BME280;59403;47.456;19.120;2023-06-26T03:57:42;100172.44;;;18.26;100.00
71567;BME280;59403;47.456;19.120;2023-06-26T04:00:12;100178.00;;;18.24;100.00
71567;BME280;59403;47.456;19.120;2023-06-26T04:02:39;100179.84;;;18.24;100.00
71567;BME280;59403;47.456;19.120;2023-06-26T04:05:06;100177.09;;;18.37;100.00
71567;BME280;59403;47.456;19.120;2023-06-26T04:07:33;100187.34;;;18.59;100.00
71567;BME280;59403;47.456;19.120;2023-06-26T04:10:00;100176.44;;;18.54;100.00
71567;BME280;59403;47.456;19.120;2023-06-26T04:12:27;100175.81;;;18.59;100.00
71567;BME280;59403;47.456;19.120;2023-06-26T04:14:54;100175.59;;;18.60;100.00
71567;BME280;59403;47.456;19.120;2023-06-26T04:17:22;100169.84;;;18.57;100.00
71567;BME280;59403;47.456;19.120;2023-06-26T04:19:49;100176.22;;;18.62;100.00
71567;BME280;59403;47.456;19.120;2023-06-26T04:22:15;100180.66;;;18.75;100.00
71567;BME280;59403;47.456;19.120;2023-06-26T04:24:42;100179.37;;;18.84;100.00
71567;BME280;59403;47.456;19.120;2023-06-26T04:27:11;100180.66;;;18.81;100.00
71567;BME280;59403;47.456;19.120;2023-06-26T04:29:39;100180.84;;;19.17;98.64
71567;BME280;59403;47.456;19.120;2023-06-26T04:32:06;100175.72;;;19.41;95.21
71567;BME280;59403;47.456;19.120;2023-06-26T04:34:34;100182.28;;;20.30;91.06
71567;BME280;59403;47.456;19.120;2023-06-26T04:37:06;100178.69;;;20.54;89.29
71567;BME280;59403;47.456;19.120;2023-06-26T04:39:35;100179.03;;;20.58;88.12
71567;BME280;59403;47.456;19.120;2023-06-26T04:42:04;100179.47;;;20.43;88.40
71567;BME280;59403;47.456;19.120;2023-06-26T04:44:31;100183.91;;;20.13;89.57
71567;BME280;59403;47.456;19.120;2023-06-26T04:46:58;100191.19;;;19.88;91.02
71567;BME280;59403;47.456;19.120;2023-06-26T04:49:25;100196.47;;;19.76;91.10
71567;BME280;59403;47.456;19.120;2023-06-26T04:51:54;100197.72;;;19.74;90.22
71567;BME280;59403;47.456;19.120;2023-06-26T04:54:21;100191.78;;;19.90;89.28
71567;BME280;59403;47.456;19.120;2023-06-26T04:56:48;100197.53;;;19.75;89.64
71567;BME280;59403;47.456;19.120;2023-06-26T04:59:15;100191.34;;;19.75;89.67
71567;BME280;59403;47.456;19.120;2023-06-26T05:01:42;100192.00;;;19.70;89.72
71567;BME280;59403;47.456;19.120;2023-06-26T05:04:09;100198.62;;;19.68;89.94
71567;BME280;59403;47.456;19.120;2023-06-26T05:06:36;100183.28;;;19.75;89.46
71567;BME280;59403;47.456;19.120;2023-06-26T05:09:04;100188.25;;;19.71;90.06
71567;BME280;59403;47.456;19.120;2023-06-26T05:11:31;100192.34;;;19.74;90.07
71567;BME280;59403;47.456;19.120;2023-06-26T05:13:58;100193.19;;;19.74;90.41
71567;BME280;59403;47.456;19.120;2023-06-26T05:16:25;100186.56;;;19.77;91.02
71567;BME280;59403;47.456;19.120;2023-06-26T05:18:51;100186.50;;;19.83;91.09
71567;BME280;59403;47.456;19.120;2023-06-26T05:21:20;100191.00;;;19.89;91.03
71567;BME280;59403;47.456;19.120;2023-06-26T05:23:47;100188.88;;;19.91;90.92
71567;BME280;59403;47.456;19.120;2023-06-26T05:26:17;100196.31;;;19.96;90.70
71567;BME280;59403;47.456;19.120;2023-06-26T05:28:44;100190.84;;;20.02;90.81
71567;BME280;59403;47.456;19.120;2023-06-26T05:31:14;100197.22;;;20.08;90.15
71567;BME280;59403;47.456;19.120;2023-06-26T05:33:43;100188.22;;;20.14;89.51
71567;BME280;59403;47.456;19.120;2023-06-26T05:36:12;100194.00;;;20.17;89.39
71567;BME280;59403;47.456;19.120;2023-06-26T05:38:39;100192.53;;;20.21;88.86
71567;BME280;59403;47.456;19.120;2023-06-26T05:41:06;100187.28;;;20.26;88.81
71567;BME280;59403;47.456;19.120;2023-06-26T05:43:34;100188.72;;;20.29;88.71
71567;BME280;59403;47.456;19.120;2023-06-26T05:46:01;100191.47;;;20.41;86.76
71567;BME280;59403;47.456;19.120;2023-06-26T05:48:28;100186.84;;;20.48;87.51
71567;BME280;59403;47.456;19.120;2023-06-26T05:50:55;100182.72;;;20.63;86.51
71567;BME280;59403;47.456;19.120;2023-06-26T05:53:23;100194.94;;;20.77;86.07
71567;BME280;59403;47.456;19.120;2023-06-26T05:55:50;100193.06;;;20.78;86.11
71567;BME280;59403;47.456;19.120;2023-06-26T05:58:17;100193.19;;;21.01;84.29
71567;BME280;59403;47.456;19.120;2023-06-26T06:00:48;100194.38;;;21.05;84.69
71567;BME280;59403;47.456;19.120;2023-06-26T06:03:15;100201.47;;;21.29;82.62
71567;BME280;59403;47.456;19.120;2023-06-26T06:05:41;100194.69;;;21.38;82.85
71567;BME280;59403;47.456;19.120;2023-06-26T06:08:08;100199.72;;;21.34;83.13
71567;BME280;59403;47.456;19.120;2023-06-26T06:10:35;100194.44;;;21.39;84.01
71567;BME280;59403;47.456;19.120;2023-06-26T06:13:02;100194.50;;;21.63;81.55
71567;BME280;59403;47.456;19.120;2023-06-26T06:15:28;100193.66;;;21.62;81.83
71567;BME280;59403;47.456;19.120;2023-06-26T06:17:57;100192.75;;;21.68;80.92
71567;BME280;59403;47.456;19.120;2023-06-26T06:20:24;100185.38;;;21.87;81.38
71567;BME280;59403;47.456;19.120;2023-06-26T06:22:51;100193.22;;;22.00;80.76
71567;BME280;59403;47.456;19.120;2023-06-26T06:25:18;100192.00;;;22.30;79.50
71567;BME280;59403;47.456;19.120;2023-06-26T06:27:45;100185.53;;;22.31;78.63
71567;BME280;59403;47.456;19.120;2023-06-26T06:30:12;100187.41;;;22.42;77.95
71567;BME280;59403;47.456;19.120;2023-06-26T06:32:39;100185.47;;;22.66;76.40
71567;BME280;59403;47.456;19.120;2023-06-26T06:35:07;100182.41;;;22.74;74.34
71567;BME280;59403;47.456;19.120;2023-06-26T06:37:36;100191.62;;;22.90;74.98
71567;BME280;59403;47.456;19.120;2023-06-26T06:40:04;100188.91;;;22.90;74.46
71567;BME280;59403;47.456;19.120;2023-06-26T06:42:31;100184.03;;;23.03;74.15
71567;BME280;59403;47.456;19.120;2023-06-26T06:44:59;100189.09;;;23.28;73.90
71567;BME280;59403;47.456;19.120;2023-06-26T06:47:27;100184.00;;;23.48;73.19
71567;BME280;59403;47.456;19.120;2023-06-26T06:49:53;100186.72;;;23.48;72.53
71567;BME280;59403;47.456;19.120;2023-06-26T06:52:21;100191.28;;;23.81;70.99
71567;BME280;59403;47.456;19.120;2023-06-26T06:54:52;100188.75;;;23.91;68.21
71567;BME280;59403;47.456;19.120;2023-06-26T06:57:20;100186.28;;;24.27;68.42
71567;BME280;59403;47.456;19.120;2023-06-26T06:59:47;100185.66;;;24.42;66.33
71567;BME280;59403;47.456;19.120;2023-06-26T07:02:15;100186.88;;;24.51;66.91
71567;BME280;59403;47.456;19.120;2023-06-26T07:04:42;100192.97;;;24.63;65.41
71567;BME280;59403;47.456;19.120;2023-06-26T07:07:09;100196.09;;;24.98;66.18
71567;BME280;59403;47.456;19.120;2023-06-26T07:09:37;100190.34;;;24.90;64.19
71567;BME280;59403;47.456;19.120;2023-06-26T07:12:05;100199.78;;;25.14;62.81
71567;BME280;59403;47.456;19.120;2023-06-26T07:14:32;100191.47;;;25.25;62.76
71567;BME280;59403;47.456;19.120;2023-06-26T07:16:59;100190.28;;;25.38;62.00
71567;BME280;59403;47.456;19.120;2023-06-26T07:19:25;100196.13;;;25.56;60.94
71567;BME280;59403;47.456;19.120;2023-06-26T07:21:52;100189.81;;;25.51;59.91
71567;BME280;59403;47.456;19.120;2023-06-26T07:24:19;100184.41;;;25.51;59.42
71567;BME280;59403;47.456;19.120;2023-06-26T07:26:47;100186.59;;;25.49;58.84
71567;BME280;59403;47.456;19.120;2023-06-26T07:29:14;100195.06;;;25.57;56.87
71567;BME280;59403;47.456;19.120;2023-06-26T07:31:41;100186.63;;;25.54;57.37
71567;BME280;59403;47.456;19.120;2023-06-26T07:34:07;100184.09;;;25.84;56.66
71567;BME280;59403;47.456;19.120;2023-06-26T07:36:34;100181.59;;;25.72;55.50
71567;BME280;59403;47.456;19.120;2023-06-26T07:39:01;100183.47;;;25.72;55.29
71567;BME280;59403;47.456;19.120;2023-06-26T07:41:28;100185.75;;;25.85;54.54
71567;BME280;59403;47.456;19.120;2023-06-26T07:43:58;100183.13;;;26.00;54.48
71567;BME280;59403;47.456;19.120;2023-06-26T07:46:25;100176.75;;;26.21;54.39
71567;BME280;59403;47.456;19.120;2023-06-26T07:48:53;100178.88;;;26.09;54.33
71567;BME280;59403;47.456;19.120;2023-06-26T07:51:20;100190.66;;;26.35;53.92
71567;BME280;59403;47.456;19.120;2023-06-26T07:53:47;100191.56;;;26.55;53.17
71567;BME280;59403;47.456;19.120;2023-06-26T07:56:14;100187.62;;;26.88;52.76
71567;BME280;59403;47.456;19.120;2023-06-26T07:58:41;100198.81;;;27.02;52.99
71567;BME280;59403;47.456;19.120;2023-06-26T08:01:09;100196.37;;;27.05;52.48
71567;BME280;59403;47.456;19.120;2023-06-26T08:03:36;100192.53;;;26.91;52.08
71567;BME280;59403;47.456;19.120;2023-06-26T08:06:03;100191.41;;;26.77;51.48
71567;BME280;59403;47.456;19.120;2023-06-26T08:08:30;100183.53;;;26.80;53.55
71567;BME280;59403;47.456;19.120;2023-06-26T08:10:59;100180.53;;;26.20;53.28
71567;BME280;59403;47.456;19.120;2023-06-26T08:13:26;100184.84;;;26.68;52.65
71567;BME280;59403;47.456;19.120;2023-06-26T08:15:53;100184.78;;;26.48;54.12
71567;BME280;59403;47.456;19.120;2023-06-26T08:18:21;100189.37;;;26.47;53.15
71567;BME280;59403;47.456;19.120;2023-06-26T08:20:48;100191.03;;;26.58;53.39
71567;BME280;59403;47.456;19.120;2023-06-26T08:23:15;100193.88;;;26.88;53.15
71567;BME280;59403;47.456;19.120;2023-06-26T08:25:42;100187.69;;;27.13;52.42
71567;BME280;59403;47.456;19.120;2023-06-26T08:28:09;100190.38;;;26.98;52.00
71567;BME280;59403;47.456;19.120;2023-06-26T08:30:35;100192.91;;;27.45;51.37
71567;BME280;59403;47.456;19.120;2023-06-26T08:33:02;100193.44;;;27.37;52.08
71567;BME280;59403;47.456;19.120;2023-06-26T08:35:30;100193.44;;;27.37;50.02
71567;BME280;59403;47.456;19.120;2023-06-26T08:37:57;100186.06;;;27.77;50.68
71567;BME280;59403;47.456;19.120;2023-06-26T08:40:25;100190.09;;;28.15;49.73
71567;BME280;59403;47.456;19.120;2023-06-26T08:42:53;100185.53;;;27.45;48.49
71567;BME280;59403;47.456;19.120;2023-06-26T08:45:20;100188.50;;;27.79;48.22
71567;BME280;59403;47.456;19.120;2023-06-26T08:47:48;100183.37;;;27.62;48.30
71567;BME280;59403;47.456;19.120;2023-06-26T08:50:22;100182.00;;;27.70;49.05
71567;BME280;59403;47.456;19.120;2023-06-26T08:52:55;100190.44;;;27.93;48.47
71567;BME280;59403;47.456;19.120;2023-06-26T08:55:23;100176.53;;;27.85;48.29
71567;BME280;59403;47.456;19.120;2023-06-26T08:57:52;100185.97;;;28.28;47.98
71567;BME280;59403;47.456;19.120;2023-06-26T09:00:20;100181.16;;;27.94;49.06
71567;BME280;59403;47.456;19.120;2023-06-26T09:02:47;100183.81;;;26.74;52.83
71567;BME280;59403;47.456;19.120;2023-06-26T09:05:14;100170.91;;;26.44;51.51
71567;BME280;59403;47.456;19.120;2023-06-26T09:07:41;100177.84;;;26.97;51.31
71567;BME280;59403;47.456;19.120;2023-06-26T09:10:10;100179.72;;;26.81;51.88
71567;BME280;59403;47.456;19.120;2023-06-26T09:12:37;100183.56;;;26.85;51.22
71567;BME280;59403;47.456;19.120;2023-06-26T09:15:05;100176.53;;;27.10;50.27
71567;BME280;59403;47.456;19.120;2023-06-26T09:17:38;100182.53;;;27.72;48.61
71567;BME280;59403;47.456;19.120;2023-06-26T09:20:06;100178.97;;;28.07;49.17
71567;BME280;59403;47.456;19.120;2023-06-26T09:22:36;100179.19;;;28.15;49.13
71567;BME280;59403;47.456;19.120;2023-06-26T09:25:05;100174.72;;;28.49;47.69
71567;BME280;59403;47.456;19.120;2023-06-26T09:27:34;100173.09;;;28.43;48.20
71567;BME280;59403;47.456;19.120;2023-06-26T09:30:02;100178.50;;;28.58;48.23
71567;BME280;59403;47.456;19.120;2023-06-26T09:32:30;100166.78;;;28.63;47.85
71567;BME280;59403;47.456;19.120;2023-06-26T09:34:56;100163.09;;;28.24;46.30
71567;BME280;59403;47.456;19.120;2023-06-26T09:37:25;100173.53;;;28.75;47.57
71567;BME280;59403;47.456;19.120;2023-06-26T09:39:52;100165.59;;;28.84;46.92
71567;BME280;59403;47.456;19.120;2023-06-26T09:42:19;100162.25;;;28.38;43.99
71567;BME280;59403;47.456;19.120;2023-06-26T09:44:48;100164.47;;;28.85;46.29
71567;BME280;59403;47.456;19.120;2023-06-26T09:47:16;100158.63;;;29.07;44.88
71567;BME280;59403;47.456;19.120;2023-06-26T09:49:45;100162.66;;;29.14;43.95
71567;BME280;59403;47.456;19.120;2023-06-26T09:52:14;100155.72;;;28.34;45.96
71567;BME280;59403;47.456;19.120;2023-06-26T09:54:42;100160.19;;;28.00;48.07
71567;BME280;59403;47.456;19.120;2023-06-26T09:57:11;100158.87;;;27.32;48.66
71567;BME280;59403;47.456;19.120;2023-06-26T09:59:38;100154.22;;;27.88;48.26
71567;BME280;59403;47.456;19.120;2023-06-26T10:02:07;100155.28;;;28.71;47.28
71567;BME280;59403;47.456;19.120;2023-06-26T10:04:35;100147.00;;;28.37;47.69
71567;BME280;59403;47.456;19.120;2023-06-26T10:07:05;100153.38;;;27.87;48.18
71567;BME280;59403;47.456;19.120;2023-06-26T10:09:32;100152.84;;;28.01;49.26
71567;BME280;59403;47.456;19.120;2023-06-26T10:12:02;100143.41;;;28.47;47.54
71567;BME280;59403;47.456;19.120;2023-06-26T10:14:34;100144.19;;;29.01;46.66
71567;BME280;59403;47.456;19.120;2023-06-26T10:17:04;100135.97;;;28.62;45.18
71567;BME280;59403;47.456;19.120;2023-06-26T10:19:37;100141.97;;;29.08;45.96
71567;BME280;59403;47.456;19.120;2023-06-26T10:22:05;100134.25;;;29.20;46.27
71567;BME280;59403;47.456;19.120;2023-06-26T10:24:33;100138.78;;;29.35;45.10
71567;BME280;59403;47.456;19.120;2023-06-26T10:27:04;100142.25;;;29.12;43.90
71567;BME280;59403;47.456;19.120;2023-06-26T10:29:35;100130.69;;;29.53;43.75
71567;BME280;59403;47.456;19.120;2023-06-26T10:32:04;100129.69;;;29.44;44.04
71567;BME280;59403;47.456;19.120;2023-06-26T10:34:33;100134.41;;;28.56;45.89
71567;BME280;59403;47.456;19.120;2023-06-26T10:37:02;100125.66;;;27.75;46.64
71567;BME280;59403;47.456;19.120;2023-06-26T10:39:46;100129.25;;;27.31;47.92
71567;BME280;59403;47.456;19.120;2023-06-26T10:42:14;100128.41;;;27.15;49.28
71567;BME280;59403;47.456;19.120;2023-06-26T10:44:42;100128.91;;;26.97;49.16
71567;BME280;59403;47.456;19.120;2023-06-26T10:47:11;100121.22;;;26.64;49.57
71567;BME280;59403;47.456;19.120;2023-06-26T10:49:47;100129.97;;;26.71;49.94
71567;BME280;59403;47.456;19.120;2023-06-26T10:52:14;100115.09;;;27.34;49.25
71567;BME280;59403;47.456;19.120;2023-06-26T10:54:41;100130.41;;;28.29;46.55
71567;BME280;59403;47.456;19.120;2023-06-26T10:57:08;100119.44;;;28.92;45.71
71567;BME280;59403;47.456;19.120;2023-06-26T10:59:40;100123.59;;;28.80;44.37
71567;BME280;59403;47.456;19.120;2023-06-26T11:02:08;100123.19;;;29.35;42.42
71567;BME280;59403;47.456;19.120;2023-06-26T11:04:38;100128.13;;;29.90;43.19
71567;BME280;59403;47.456;19.120;2023-06-26T11:07:19;100127.47;;;29.46;42.89
71567;BME280;59403;47.456;19.120;2023-06-26T11:10:00;100126.34;;;29.19;40.99
71567;BME280;59403;47.456;19.120;2023-06-26T11:12:37;100128.69;;;29.64;43.74
71567;BME280;59403;47.456;19.120;2023-06-26T11:15:07;100127.44;;;29.18;42.16
71567;BME280;59403;47.456;19.120;2023-06-26T11:17:35;100112.53;;;29.39;43.83
71567;BME280;59403;47.456;19.120;2023-06-26T11:20:02;100123.50;;;28.95;41.71
71567;BME280;59403;47.456;19.120;2023-06-26T11:22:34;100119.53;;;28.77;43.12
71567;BME280;59403;47.456;19.120;2023-06-26T11:25:01;100105.75;;;27.85;44.34
71567;BME280;59403;47.456;19.120;2023-06-26T11:27:31;100112.00;;;27.80;46.33
71567;BME280;59403;47.456;19.120;2023-06-26T11:29:58;100113.72;;;27.46;46.84
71567;BME280;59403;47.456;19.120;2023-06-26T11:32:26;100107.75;;;27.29;47.30
71567;BME280;59403;47.456;19.120;2023-06-26T11:34:53;100106.09;;;27.08;47.67
71567;BME280;59403;47.456;19.120;2023-06-26T11:37:20;100111.53;;;27.03;48.19
71567;BME280;59403;47.456;19.120;2023-06-26T11:39:49;100104.44;;;26.92;49.09
71567;BME280;59403;47.456;19.120;2023-06-26T11:42:16;100107.16;;;26.87;49.38
71567;BME280;59403;47.456;19.120;2023-06-26T11:44:44;100109.88;;;26.87;49.60
71567;BME280;59403;47.456;19.120;2023-06-26T11:47:14;100096.84;;;27.14;48.54
71567;BME280;59403;47.456;19.120;2023-06-26T11:49:45;100101.37;;;27.94;46.28
71567;BME280;59403;47.456;19.120;2023-06-26T11:52:12;100094.84;;;28.59;45.32
71567;BME280;59403;47.456;19.120;2023-06-26T11:54:40;100100.97;;;28.79;44.91
71567;BME280;59403;47.456;19.120;2023-06-26T11:57:13;100095.56;;;29.42;44.15
71567;BME280;59403;47.456;19.120;2023-06-26T11:59:40;100089.91;;;29.33;44.07
71567;BME280;59403;47.456;19.120;2023-06-26T12:02:09;100089.09;;;29.90;43.13
71567;BME280;59403;47.456;19.120;2023-06-26T12:04:37;100077.25;;;29.76;42.39
71567;BME280;59403;47.456;19.120;2023-06-26T12:07:05;100090.41;;;30.16;41.75
71567;BME280;59403;47.456;19.120;2023-06-26T12:09:38;100094.47;;;30.42;41.04
71567;BME280;59403;47.456;19.120;2023-06-26T12:12:06;100089.41;;;29.83;40.28
71567;BME280;59403;47.456;19.120;2023-06-26T12:14:36;100090.47;;;30.53;40.83
71567;BME280;59403;47.456;19.120;2023-06-26T12:17:09;100091.00;;;29.61;41.96
71567;BME280;59403;47.456;19.120;2023-06-26T12:19:37;100091.69;;;29.19;43.11
71567;BME280;59403;47.456;19.120;2023-06-26T12:22:07;100084.13;;;28.72;44.20
71567;BME280;59403;47.456;19.120;2023-06-26T12:24:36;100084.59;;;28.41;44.30
71567;BME280;59403;47.456;19.120;2023-06-26T12:27:08;100080.31;;;28.25;45.13
71567;BME280;59403;47.456;19.120;2023-06-26T12:29:38;100085.81;;;28.10;45.93
71567;BME280;59403;47.456;19.120;2023-06-26T12:32:08;100083.72;;;27.91;46.31
71567;BME280;59403;47.456;19.120;2023-06-26T12:34:36;100082.34;;;27.84;47.32
71567;BME280;59403;47.456;19.120;2023-06-26T12:37:05;100081.28;;;27.70;48.18
71567;BME280;59403;47.456;19.120;2023-06-26T12:39:45;100081.91;;;27.47;48.05
71567;BME280;59403;47.456;19.120;2023-06-26T12:42:14;100074.81;;;27.46;48.58
71567;BME280;59403;47.456;19.120;2023-06-26T12:44:42;100078.91;;;27.43;48.35